Time;durP1;ratioP1;P1;durP2;ratioP2;P2;SDS_P1;SDS_P2;PMS_P1;PMS_P2;Temp;Humidity;BMP_temperature;BMP_pressure;BME280_temperature;BME280_humidity;BME280_pressure;Samples;Min_cycle;Max_cycle;Signal;HPM_P1;HPM_P2
2022/12/25 00:00:32;;;;;;;7.68;3.35;;;6.60;99.90;;;;;;5079198;28;20036;-69
2022/12/25 00:02:57;;;;;;;9.27;3.22;;;6.60;99.90;;;;;;5069606;28;20042;-69
2022/12/25 00:05:23;;;;;;;11.15;4.30;;;6.60;99.90;;;;;;5054077;28;20040;-69
2022/12/25 00:07:49;;;;;;;7.40;3.47;;;6.60;99.90;;;;;;5067943;28;20067;-69
2022/12/25 00:10:14;;;;;;;10.10;3.35;;;6.50;99.90;;;;;;5068033;28;20533;-69
2022/12/25 00:12:40;;;;;;;12.90;4.50;;;6.50;99.90;;;;;;5072701;28;20097;-69
2022/12/25 00:15:06;;;;;;;7.63;2.72;;;6.50;99.90;;;;;;5081130;28;20044;-69
2022/12/25 00:17:32;;;;;;;6.15;2.83;;;6.60;99.90;;;;;;5068651;28;20119;-69
2022/12/25 00:19:57;;;;;;;9.07;3.53;;;6.60;99.90;;;;;;5062722;28;20032;-69
2022/12/25 00:22:23;;;;;;;8.63;3.60;;;6.60;99.90;;;;;;5053346;28;20051;-69
2022/12/25 00:24:48;;;;;;;9.20;3.42;;;6.60;99.90;;;;;;5081859;28;20097;-69
2022/12/25 00:27:15;;;;;;;9.95;3.90;;;6.60;99.90;;;;;;5070846;28;20485;-69
2022/12/25 00:29:40;;;;;;;15.68;4.53;;;6.60;99.90;;;;;;5066645;28;20100;-69
2022/12/25 00:32:06;;;;;;;10.80;4.10;;;6.70;99.90;;;;;;5073655;28;20044;-69
2022/12/25 00:34:32;;;;;;;13.30;3.83;;;6.60;99.90;;;;;;5068822;28;20594;-69
2022/12/25 00:36:57;;;;;;;15.57;4.28;;;6.60;99.90;;;;;;5054755;28;20053;-69
2022/12/25 00:39:23;;;;;;;14.25;3.95;;;6.60;99.90;;;;;;5065747;28;20038;-69
2022/12/25 00:44:33;;;;;;;9.57;3.13;;;6.60;99.90;;;;;;5081570;28;20044;-69
2022/12/25 00:46:58;;;;;;;10.43;3.17;;;6.70;99.90;;;;;;5074422;28;20040;-69
2022/12/25 00:49:24;;;;;;;10.07;3.65;;;6.70;99.90;;;;;;5063402;28;20040;-69
2022/12/25 00:51:50;;;;;;;5.35;2.45;;;6.60;99.90;;;;;;5070869;28;20058;-69
2022/12/25 00:54:16;;;;;;;9.50;3.67;;;6.70;99.90;;;;;;5068377;28;20618;-69
2022/12/25 00:56:42;;;;;;;9.45;3.63;;;6.60;99.90;;;;;;5068052;28;20032;-69
2022/12/25 00:59:08;;;;;;;11.15;3.47;;;6.70;99.90;;;;;;5063210;28;20535;-69
2022/12/25 01:01:33;;;;;;;10.85;3.03;;;6.70;99.90;;;;;;5068791;28;20185;-69
2022/12/25 01:03:59;;;;;;;13.70;4.05;;;6.70;99.90;;;;;;5068012;28;20040;-69
2022/12/25 01:06:25;;;;;;;7.90;3.30;;;6.70;99.90;;;;;;5083456;28;20616;-69
2022/12/25 01:11:35;;;;;;;7.90;3.80;;;6.70;99.90;;;;;;5072176;28;20435;-68
2022/12/25 01:14:01;;;;;;;7.45;3.50;;;6.70;99.90;;;;;;5062314;28;20037;-70
2022/12/25 01:16:27;;;;;;;11.65;4.00;;;6.70;99.90;;;;;;5062967;28;20127;-69
2022/12/25 01:18:53;;;;;;;8.65;4.15;;;6.80;99.90;;;;;;5063354;28;20033;-69
2022/12/25 01:21:22;;;;;;;9.65;4.63;;;6.80;99.90;;;;;;5052323;28;20394;-69
2022/12/25 01:23:49;;;;;;;11.13;4.25;;;6.80;99.90;;;;;;5060060;28;20070;-69
2022/12/25 01:26:16;;;;;;;6.57;3.53;;;6.80;99.90;;;;;;5042773;28;20040;-69
2022/12/25 01:28:41;;;;;;;10.57;3.42;;;6.80;99.90;;;;;;5053136;28;20044;-69
2022/12/25 01:31:10;;;;;;;13.20;3.53;;;6.80;99.90;;;;;;5039437;28;20046;-69
2022/12/25 01:33:36;;;;;;;7.65;4.00;;;6.80;99.90;;;;;;5054190;28;20158;-69
2022/12/25 01:36:03;;;;;;;7.50;3.13;;;6.80;99.90;;;;;;5052473;28;20089;-69
2022/12/25 01:38:29;;;;;;;8.10;3.30;;;6.90;99.90;;;;;;5053017;28;20033;-69
2022/12/25 01:40:54;;;;;;;7.00;2.85;;;6.90;99.90;;;;;;5038967;28;20043;-69
2022/12/25 01:43:29;;;;;;;11.07;3.78;;;6.90;99.90;;;;;;5058266;28;20033;-69
2022/12/25 01:45:55;;;;;;;7.05;3.55;;;7.00;99.90;;;;;;5055762;28;20094;-69
2022/12/25 01:48:35;;;;;;;6.63;3.30;;;7.00;99.90;;;;;;5052900;28;20048;-69
2022/12/25 01:51:27;;;;;;;15.57;4.05;;;7.00;99.90;;;;;;5076879;28;20760;-69
2022/12/25 01:53:54;;;;;;;10.25;3.10;;;7.00;99.90;;;;;;5054010;28;20041;-69
2022/12/25 01:56:20;;;;;;;7.20;3.72;;;7.00;99.90;;;;;;5056029;28;20075;-69
2022/12/25 01:58:46;;;;;;;9.60;3.67;;;7.10;99.90;;;;;;5031044;28;20036;-69
2022/12/25 02:01:11;;;;;;;11.73;4.78;;;7.10;99.90;;;;;;5043414;28;20098;-69
2022/12/25 02:03:41;;;;;;;11.10;4.22;;;7.10;99.90;;;;;;5043567;28;20028;-69
2022/12/25 02:06:07;;;;;;;7.05;3.88;;;7.10;99.90;;;;;;5064232;28;20129;-69
2022/12/25 02:08:33;;;;;;;8.30;3.63;;;7.10;99.90;;;;;;5053501;28;20032;-69
2022/12/25 02:10:59;;;;;;;7.65;3.53;;;7.20;99.90;;;;;;5072816;28;20043;-69
2022/12/25 02:13:25;;;;;;;9.32;3.17;;;7.20;99.90;;;;;;5052943;28;20044;-69
2022/12/25 02:16:14;;;;;;;16.35;3.85;;;7.20;99.90;;;;;;5049831;28;20114;-69
2022/12/25 02:18:42;;;;;;;5.93;2.88;;;7.10;99.90;;;;;;5057193;28;20032;-69
2022/12/25 02:21:24;;;;;;;11.70;3.38;;;7.20;99.90;;;;;;5034823;28;20037;-69
2022/12/25 02:24:11;;;;;;;8.48;2.80;;;7.20;99.90;;;;;;5053008;28;20036;-69
2022/12/25 02:26:39;;;;;;;6.80;3.38;;;7.20;99.90;;;;;;5051013;28;20700;-69
2022/12/25 02:29:19;;;;;;;5.13;2.60;;;7.20;99.90;;;;;;5052318;28;20053;-69
2022/12/25 02:32:06;;;;;;;14.32;3.20;;;7.20;99.90;;;;;;5065144;28;20437;-69
2022/12/25 02:34:57;;;;;;;7.35;2.92;;;7.20;99.90;;;;;;5042171;28;20123;-69
2022/12/25 02:37:44;;;;;;;5.45;2.88;;;7.20;99.90;;;;;;5057049;28;20036;-69
2022/12/25 02:40:22;;;;;;;9.80;3.10;;;7.20;99.90;;;;;;5038742;28;20036;-69
2022/12/25 03:08:46;;;;;;;5.88;2.83;;;7.40;99.90;;;;;;5052032;28;20060;-69
2022/12/25 03:11:31;;;;;;;11.02;3.17;;;7.40;99.90;;;;;;5053289;28;20127;-69
2022/12/25 03:16:52;;;;;;;13.73;3.72;;;7.40;99.90;;;;;;5082364;28;20048;-69
2022/12/25 03:27:43;;;;;;;8.77;3.00;;;7.50;99.90;;;;;;5065326;28;20118;-69
2022/12/25 03:33:11;;;;;;;8.48;2.90;;;7.50;99.90;;;;;;5061686;28;20102;-69
2022/12/25 03:36:05;;;;;;;11.68;2.80;;;7.50;99.90;;;;;;5065929;28;20036;-69
2022/12/25 03:39:40;;;;;;;6.38;2.65;;;7.60;99.90;;;;;;5069317;28;20034;-69
2022/12/25 04:37:17;;;;;;;12.18;3.70;;;7.80;99.90;;;;;;5075527;28;20044;-69
2022/12/25 04:39:43;;;;;;;7.45;3.13;;;7.80;99.90;;;;;;5082181;28;20032;-69
2022/12/25 04:42:08;;;;;;;5.80;3.47;;;7.80;99.90;;;;;;5071780;28;20792;-69
2022/12/25 04:44:34;;;;;;;11.02;4.38;;;7.80;99.90;;;;;;5073896;28;20339;-69
2022/12/25 04:46:59;;;;;;;7.85;3.63;;;7.90;99.90;;;;;;5075001;28;20154;-69
2022/12/25 04:49:25;;;;;;;6.07;3.70;;;7.90;99.90;;;;;;5072764;28;20401;-69
2022/12/25 04:51:51;;;;;;;8.77;3.50;;;7.90;99.90;;;;;;5080833;28;20036;-69
2022/12/25 04:54:16;;;;;;;8.05;3.15;;;7.90;99.90;;;;;;5070163;28;20059;-69
2022/12/25 04:56:42;;;;;;;5.43;2.67;;;7.90;99.90;;;;;;5071744;28;20384;-69
2022/12/25 04:59:08;;;;;;;8.30;3.38;;;7.90;99.90;;;;;;5071378;28;20544;-69
2022/12/25 05:01:33;;;;;;;6.55;3.30;;;8.00;99.90;;;;;;5059426;28;20036;-69
2022/12/25 05:03:59;;;;;;;12.07;4.25;;;8.00;99.90;;;;;;5071494;28;20178;-69
2022/12/25 05:06:24;;;;;;;7.10;3.22;;;8.00;99.90;;;;;;5072798;28;20040;-69
2022/12/25 05:08:50;;;;;;;12.80;3.95;;;8.00;99.90;;;;;;5072720;28;20064;-69
2022/12/25 05:11:16;;;;;;;11.70;4.13;;;8.00;99.90;;;;;;5075634;28;20032;-69
2022/12/25 05:13:42;;;;;;;18.00;3.97;;;8.00;99.90;;;;;;5088879;28;20052;-69
2022/12/25 05:16:14;;;;;;;5.18;2.83;;;8.00;99.90;;;;;;5078646;28;21803;-69
2022/12/25 05:18:40;;;;;;;7.07;3.85;;;8.00;99.90;;;;;;5080698;28;20036;-69
2022/12/25 05:21:06;;;;;;;10.43;4.15;;;8.10;99.90;;;;;;5075572;28;20469;-69
2022/12/25 05:23:32;;;;;;;7.82;3.28;;;8.10;99.90;;;;;;5081827;28;20040;-69
2022/12/25 05:25:58;;;;;;;7.28;3.78;;;8.10;99.90;;;;;;5060375;28;20038;-69
2022/12/25 05:28:24;;;;;;;9.73;3.65;;;8.10;99.90;;;;;;5066238;28;20410;-69
2022/12/25 05:30:49;;;;;;;22.33;4.20;;;8.10;99.90;;;;;;5075358;28;20490;-69
2022/12/25 05:33:15;;;;;;;8.50;4.38;;;8.20;99.90;;;;;;5079971;28;20093;-69
2022/12/25 05:35:41;;;;;;;12.38;4.20;;;8.10;99.90;;;;;;5084160;28;20044;-69
2022/12/25 05:38:07;;;;;;;8.85;3.92;;;8.10;99.90;;;;;;5074408;28;20541;-69
2022/12/25 05:40:33;;;;;;;12.82;4.65;;;8.10;99.90;;;;;;5082131;28;20040;-69
2022/12/25 05:42:59;;;;;;;7.75;4.13;;;8.20;99.90;;;;;;5053185;28;20040;-69
2022/12/25 05:45:25;;;;;;;9.27;3.55;;;8.20;99.90;;;;;;5076463;28;20040;-69
2022/12/25 05:47:51;;;;;;;7.03;3.47;;;8.20;99.90;;;;;;5066500;28;20645;-69
2022/12/25 05:50:17;;;;;;;12.73;3.60;;;8.20;99.90;;;;;;5078347;28;20032;-69
2022/12/25 05:52:43;;;;;;;12.43;4.32;;;8.20;99.90;;;;;;5075799;28;20059;-69
2022/12/25 05:55:09;;;;;;;7.05;3.47;;;8.20;99.90;;;;;;5072572;28;20059;-69
2022/12/25 05:57:35;;;;;;;8.73;4.63;;;8.20;99.90;;;;;;5051308;28;20044;-69
2022/12/25 06:00:00;;;;;;;11.27;4.40;;;8.20;99.90;;;;;;5073733;28;20047;-69
2022/12/25 06:02:26;;;;;;;10.15;3.70;;;8.20;99.90;;;;;;5075769;28;20040;-69
2022/12/25 06:04:51;;;;;;;13.10;3.58;;;8.30;99.90;;;;;;5062414;28;20040;-69
2022/12/25 06:07:17;;;;;;;9.38;4.28;;;8.20;99.90;;;;;;5077132;28;20058;-70
2022/12/25 06:09:43;;;;;;;8.18;4.03;;;8.30;99.90;;;;;;5074786;28;20696;-69
2022/12/25 06:12:08;;;;;;;8.82;4.53;;;8.30;99.90;;;;;;5069916;28;20186;-69
2022/12/25 06:14:35;;;;;;;9.05;4.18;;;8.30;99.90;;;;;;5071350;28;20040;-69
2022/12/25 06:17:00;;;;;;;8.13;3.53;;;8.30;99.90;;;;;;5084419;28;20366;-69
2022/12/25 06:19:26;;;;;;;10.50;3.47;;;8.30;99.90;;;;;;5084090;28;20050;-69
2022/12/25 06:21:53;;;;;;;21.77;5.45;;;8.30;99.90;;;;;;5058790;28;20051;-69
2022/12/25 06:24:19;;;;;;;14.35;4.30;;;8.30;99.90;;;;;;5072816;28;20074;-69
2022/12/25 06:26:44;;;;;;;14.60;3.65;;;8.30;99.90;;;;;;5073350;28;20481;-69
2022/12/25 06:29:10;;;;;;;9.52;3.28;;;8.40;99.90;;;;;;5074374;28;20086;-69
2022/12/25 06:31:35;;;;;;;8.85;3.50;;;8.40;99.90;;;;;;5068872;28;20173;-69
2022/12/25 06:34:01;;;;;;;13.13;4.82;;;8.40;99.90;;;;;;5079844;28;20516;-69
2022/12/25 06:36:28;;;;;;;8.82;3.78;;;8.40;99.90;;;;;;5069480;28;20047;-69
2022/12/25 06:38:54;;;;;;;11.60;4.43;;;8.40;99.90;;;;;;5076604;28;20043;-69
2022/12/25 06:41:22;;;;;;;13.38;4.68;;;8.40;99.90;;;;;;5074373;28;20385;-69
2022/12/25 06:43:52;;;;;;;8.70;3.80;;;8.40;99.90;;;;;;5070813;28;20452;-69
2022/12/25 06:46:19;;;;;;;11.77;4.55;;;8.40;99.90;;;;;;5063517;28;20036;-69
2022/12/25 06:48:48;;;;;;;8.82;4.20;;;8.40;99.90;;;;;;5075996;28;20036;-69
2022/12/25 06:51:18;;;;;;;8.45;4.38;;;8.40;99.90;;;;;;5067703;28;20036;-69
2022/12/25 06:53:43;;;;;;;11.20;4.38;;;8.40;99.90;;;;;;5078624;28;20442;-69
2022/12/25 06:56:14;;;;;;;10.70;3.97;;;8.40;99.90;;;;;;5068618;28;20040;-69
2022/12/25 06:58:45;;;;;;;13.68;4.35;;;8.50;99.90;;;;;;5065592;28;20032;-69
2022/12/25 07:01:43;;;;;;;7.00;3.58;;;8.50;99.90;;;;;;5070922;28;20097;-69
2022/12/25 07:04:18;;;;;;;13.65;4.05;;;8.50;99.90;;;;;;5061387;28;20053;-69
2022/12/25 07:06:43;;;;;;;8.95;4.43;;;8.50;99.90;;;;;;5062034;28;20520;-69
2022/12/25 07:09:09;;;;;;;9.90;3.83;;;8.50;99.90;;;;;;5048963;28;20040;-69
2022/12/25 07:11:35;;;;;;;6.30;3.45;;;8.40;99.90;;;;;;5064723;28;20078;-69
2022/12/25 07:14:01;;;;;;;15.00;4.72;;;8.50;99.90;;;;;;5084300;28;20050;-69
2022/12/25 07:16:26;;;;;;;9.27;3.92;;;8.50;99.90;;;;;;5066292;28;20403;-69
2022/12/25 07:18:52;;;;;;;8.35;3.78;;;8.50;99.90;;;;;;5052974;28;20036;-69
2022/12/25 07:21:19;;;;;;;10.90;3.33;;;8.50;99.90;;;;;;5050375;28;20082;-69
2022/12/25 07:23:46;;;;;;;7.13;3.88;;;8.50;99.90;;;;;;5067055;28;20032;-69
2022/12/25 07:26:13;;;;;;;5.20;2.75;;;8.50;99.90;;;;;;5065299;28;20040;-69
2022/12/25 07:28:39;;;;;;;7.00;3.00;;;8.50;99.90;;;;;;5080585;28;20032;-69
2022/12/25 07:31:16;;;;;;;10.55;3.20;;;8.50;99.90;;;;;;5060005;28;20397;-69
2022/12/25 07:33:42;;;;;;;8.38;3.35;;;8.50;99.90;;;;;;5061652;28;20490;-69
2022/12/25 07:36:08;;;;;;;7.63;3.25;;;8.50;99.90;;;;;;5046219;28;20044;-69
2022/12/25 07:38:34;;;;;;;4.95;2.92;;;8.50;99.90;;;;;;5080563;28;20672;-69
2022/12/25 07:41:00;;;;;;;6.68;2.67;;;8.60;99.90;;;;;;5063940;28;21379;-71
2022/12/25 07:43:26;;;;;;;5.88;3.17;;;8.60;99.90;;;;;;5065228;28;20039;-69
2022/12/25 07:45:59;;;;;;;5.05;2.90;;;8.50;99.90;;;;;;5066131;28;20496;-69
2022/12/25 07:48:26;;;;;;;6.93;3.67;;;8.60;99.90;;;;;;5062976;28;20043;-69
2022/12/25 07:51:07;;;;;;;9.45;2.83;;;8.50;99.90;;;;;;5065742;28;20040;-69
2022/12/25 07:53:33;;;;;;;8.63;3.47;;;8.60;99.90;;;;;;5047261;28;20047;-70
2022/12/25 07:56:01;;;;;;;4.97;2.78;;;8.60;99.90;;;;;;5063420;28;20036;-69
2022/12/25 07:58:28;;;;;;;11.35;3.40;;;8.60;99.90;;;;;;5061447;28;20431;-69
2022/12/25 08:00:53;;;;;;;3.83;2.38;;;8.60;99.90;;;;;;5065055;28;20040;-70
2022/12/25 08:03:19;;;;;;;7.10;2.70;;;8.60;99.90;;;;;;5075518;28;20490;-69
2022/12/25 08:05:45;;;;;;;5.68;2.75;;;8.60;99.90;;;;;;5066920;28;20566;-70
2022/12/25 08:08:11;;;;;;;6.50;2.67;;;8.60;99.90;;;;;;5068018;28;20036;-70
2022/12/25 08:10:36;;;;;;;7.72;2.72;;;8.60;99.90;;;;;;5066431;28;20059;-70
2022/12/25 08:13:02;;;;;;;4.90;2.67;;;8.60;99.90;;;;;;5056563;28;20060;-69
2022/12/25 08:15:29;;;;;;;7.63;3.10;;;8.60;99.90;;;;;;5052647;28;20442;-69
2022/12/25 08:17:55;;;;;;;5.72;2.47;;;8.60;99.90;;;;;;5062198;28;20489;-69
2022/12/25 08:20:20;;;;;;;6.72;2.30;;;8.60;99.90;;;;;;5065541;28;20038;-70
2022/12/25 08:22:46;;;;;;;6.30;2.20;;;8.60;99.90;;;;;;5062022;28;20434;-70
2022/12/25 08:25:12;;;;;;;8.25;2.63;;;8.60;99.90;;;;;;5051847;28;20277;-69
2022/12/25 08:27:37;;;;;;;3.85;2.25;;;8.60;99.90;;;;;;5074974;28;20036;-69
2022/12/25 08:30:03;;;;;;;4.55;2.08;;;8.60;99.90;;;;;;5070132;28;20093;-69
2022/12/25 08:32:32;;;;;;;5.35;2.28;;;8.60;99.90;;;;;;5065953;28;20553;-69
2022/12/25 08:34:58;;;;;;;4.10;2.20;;;8.60;99.90;;;;;;5066168;28;20712;-69
2022/12/25 08:37:23;;;;;;;12.73;3.28;;;8.60;99.90;;;;;;5063689;28;20044;-70
2022/12/25 08:39:49;;;;;;;5.00;2.38;;;8.60;99.90;;;;;;5082961;28;20400;-69
2022/12/25 08:42:14;;;;;;;3.55;1.92;;;8.60;99.90;;;;;;5061248;28;20051;-70
2022/12/25 08:44:40;;;;;;;4.45;1.90;;;8.60;99.90;;;;;;5059806;28;20044;-70
2022/12/25 08:47:05;;;;;;;4.50;1.92;;;8.60;99.90;;;;;;5061613;28;20080;-69
2022/12/25 08:49:31;;;;;;;5.38;2.30;;;8.60;99.90;;;;;;5063799;28;20044;-69
2022/12/25 08:51:57;;;;;;;7.72;2.35;;;8.60;99.90;;;;;;5062963;28;20075;-70
2022/12/25 08:54:23;;;;;;;3.47;1.63;;;8.60;99.90;;;;;;5061580;28;20036;-70
2022/12/25 08:56:49;;;;;;;8.57;2.88;;;8.60;99.90;;;;;;5059325;28;20617;-69
2022/12/25 08:59:14;;;;;;;3.13;1.85;;;8.60;99.90;;;;;;5081208;28;20036;-70
2022/12/25 09:01:40;;;;;;;4.65;2.15;;;8.60;99.90;;;;;;5081051;28;20096;-70
2022/12/25 09:04:05;;;;;;;4.30;2.20;;;8.60;99.90;;;;;;5064024;28;20593;-70
2022/12/25 09:06:31;;;;;;;5.38;2.53;;;8.60;99.90;;;;;;5066204;28;20447;-70
2022/12/25 09:08:57;;;;;;;3.10;1.67;;;8.70;99.90;;;;;;5069970;28;20075;-69
2022/12/25 09:11:23;;;;;;;3.65;2.00;;;8.70;99.90;;;;;;5050363;28;20413;-70
2022/12/25 09:13:49;;;;;;;4.95;1.70;;;8.70;99.90;;;;;;5062908;28;20052;-70
2022/12/25 09:16:19;;;;;;;2.03;1.23;;;8.70;99.90;;;;;;5064529;28;20048;-70
2022/12/25 09:18:45;;;;;;;3.40;1.75;;;8.70;99.90;;;;;;5042723;28;20047;-70
2022/12/25 09:21:13;;;;;;;3.58;1.90;;;8.60;99.90;;;;;;5080424;28;20493;-70
2022/12/25 09:23:39;;;;;;;5.15;2.25;;;8.60;99.90;;;;;;5063737;28;20036;-70
2022/12/25 09:26:07;;;;;;;6.10;1.63;;;8.70;99.90;;;;;;5066129;28;20046;-70
2022/12/25 09:28:33;;;;;;;2.92;1.92;;;8.70;99.90;;;;;;5062226;28;20040;-69
2022/12/25 09:31:00;;;;;;;3.58;1.88;;;8.70;99.90;;;;;;5047573;28;20048;-70
2022/12/25 09:33:26;;;;;;;5.15;2.10;;;8.70;99.90;;;;;;5051073;28;20040;-69
2022/12/25 09:35:57;;;;;;;4.07;2.13;;;8.70;99.90;;;;;;5065772;28;20524;-70
2022/12/25 09:38:23;;;;;;;3.75;1.60;;;8.70;99.90;;;;;;5065109;28;20040;-69
2022/12/25 09:41:16;;;;;;;4.45;2.63;;;8.70;99.90;;;;;;5051853;28;20028;-69
2022/12/25 09:43:48;;;;;;;6.13;3.63;;;8.70;99.90;;;;;;5058988;28;20047;-70
2022/12/25 09:46:20;;;;;;;3.92;2.08;;;8.80;99.90;;;;;;5061838;28;20074;-70
2022/12/25 09:49:32;;;;;;;3.63;1.52;;;8.80;99.90;;;;;;5053746;28;20058;-69
2022/12/25 09:52:09;;;;;;;5.18;2.13;;;8.80;99.90;;;;;;5054997;28;20498;-69
2022/12/25 09:54:43;;;;;;;3.65;2.03;;;8.80;99.90;;;;;;5078391;28;20077;-69
2022/12/25 09:57:13;;;;;;;3.47;1.77;;;8.80;99.90;;;;;;5075692;28;20612;-70
2022/12/25 09:59:40;;;;;;;3.65;2.08;;;8.90;99.90;;;;;;5042757;28;20481;-70
2022/12/25 10:02:50;;;;;;;3.72;1.70;;;8.90;99.90;;;;;;5057065;28;20032;-69
2022/12/25 10:05:24;;;;;;;7.55;1.90;;;8.90;99.90;;;;;;5062157;28;20035;-69
2022/12/25 10:08:40;;;;;;;9.27;2.33;;;8.90;99.90;;;;;;5068580;28;20048;-69
2022/12/25 10:11:39;;;;;;;4.78;2.35;;;8.90;99.90;;;;;;5056813;28;20124;-70
2022/12/25 10:14:35;;;;;;;9.65;1.85;;;8.90;99.90;;;;;;5045356;28;20134;-70
2022/12/25 10:17:18;;;;;;;4.68;2.20;;;8.90;99.90;;;;;;5080400;28;20068;-69
2022/12/25 10:20:04;;;;;;;6.47;1.75;;;9.00;99.90;;;;;;5063341;28;20037;-69
2022/12/25 10:22:56;;;;;;;;;;;9.00;99.90;;;;;;5061759;28;20028;-69
2022/12/25 10:25:23;;;;;;;9.07;2.08;;;9.00;99.90;;;;;;5061811;28;19924;-70
2022/12/25 10:27:53;;;;;;;2.45;1.40;;;9.00;99.90;;;;;;5067676;28;20047;-69
2022/12/25 10:30:22;;;;;;;3.13;1.35;;;9.00;99.90;;;;;;5065529;28;20054;-69
2022/12/25 10:32:49;;;;;;;7.32;2.20;;;9.00;99.90;;;;;;5054243;28;20051;-69
2022/12/25 10:35:18;;;;;;;7.90;3.10;;;9.00;99.90;;;;;;5057265;28;20489;-69
2022/12/25 10:37:52;;;;;;;3.42;1.88;;;9.00;99.90;;;;;;5032239;28;20028;-69
2022/12/25 10:40:29;;;;;;;3.50;1.92;;;9.00;99.90;;;;;;5064223;28;20037;-69
2022/12/25 10:43:15;;;;;;;4.00;1.40;;;9.00;99.90;;;;;;5069900;28;20071;-69
2022/12/25 10:45:48;;;;;;;4.28;2.15;;;9.00;99.90;;;;;;5077803;28;20071;-69
2022/12/25 10:48:27;;;;;;;3.88;1.80;;;9.10;99.90;;;;;;5071749;28;20119;-69
2022/12/25 10:50:53;;;;;;;3.83;1.70;;;9.10;99.90;;;;;;5065074;28;20138;-69
2022/12/25 10:53:25;;;;;;;4.70;1.58;;;9.10;99.90;;;;;;5079370;28;20486;-69
2022/12/25 10:56:03;;;;;;;5.72;1.75;;;9.10;99.90;;;;;;5052378;28;20032;-69
2022/12/25 10:58:29;;;;;;;6.90;1.98;;;9.10;99.90;;;;;;5066011;28;20043;-69
2022/12/25 11:01:02;;;;;;;5.65;1.90;;;9.10;99.90;;;;;;5068257;28;20034;-69
2022/12/25 11:03:32;;;;;;;5.05;2.40;;;9.10;99.90;;;;;;5058160;28;20032;-69
2022/12/25 11:05:58;;;;;;;3.25;1.75;;;9.10;99.90;;;;;;5062473;28;20043;-69
2022/12/25 11:08:27;;;;;;;3.55;1.90;;;9.10;99.90;;;;;;5058374;28;20290;-69
2022/12/25 11:11:07;;;;;;;2.95;1.67;;;9.20;99.90;;;;;;5056321;28;20055;-68
2022/12/25 11:13:46;;;;;;;3.28;1.40;;;9.20;99.90;;;;;;5044477;28;20154;-69
2022/12/25 11:16:24;;;;;;;5.65;1.70;;;9.30;99.90;;;;;;5060634;28;20506;-69
2022/12/25 11:18:53;;;;;;;2.50;1.48;;;9.30;99.90;;;;;;5060493;28;20405;-70
2022/12/25 11:21:30;;;;;;;5.47;2.10;;;9.30;99.90;;;;;;5060798;28;20051;-69
2022/12/25 11:23:59;;;;;;;6.30;1.92;;;9.30;99.90;;;;;;5061796;28;20488;-70
2022/12/25 11:26:25;;;;;;;2.70;1.85;;;9.30;99.90;;;;;;5065260;28;20120;-70
2022/12/25 11:28:53;;;;;;;2.58;1.73;;;9.30;99.90;;;;;;5067613;28;20054;-69
2022/12/25 11:31:22;;;;;;;2.95;1.52;;;9.30;99.90;;;;;;5064862;28;20109;-69
2022/12/25 11:34:10;;;;;;;3.50;1.95;;;9.40;99.90;;;;;;5061656;28;20077;-70
2022/12/25 11:36:50;;;;;;;8.40;2.40;;;9.40;99.90;;;;;;5074940;28;20036;-70
2022/12/25 11:39:30;;;;;;;2.80;1.02;;;9.40;99.90;;;;;;5053807;28;20233;-69
2022/12/25 11:42:13;;;;;;;3.80;1.80;;;9.40;99.90;;;;;;5070451;28;20036;-69
2022/12/25 11:45:04;;;;;;;5.28;1.88;;;9.50;99.90;;;;;;5068311;28;20417;-69
2022/12/25 11:48:03;;;;;;;4.55;1.58;;;9.50;99.90;;;;;;5066730;28;20439;-70
2022/12/25 11:50:35;;;;;;;3.75;1.65;;;9.50;99.90;;;;;;5067922;28;20035;-69
2022/12/25 11:53:05;;;;;;;9.15;2.60;;;9.50;99.90;;;;;;5067851;28;20040;-70
2022/12/25 11:55:53;;;;;;;4.13;2.45;;;9.50;99.90;;;;;;5068137;28;20375;-69
2022/12/25 11:58:27;;;;;;;2.83;1.90;;;9.50;99.90;;;;;;5062950;28;20110;-69
2022/12/25 12:00:56;;;;;;;2.92;1.55;;;9.50;99.90;;;;;;5070863;28;20097;-70
2022/12/25 12:03:27;;;;;;;3.42;2.10;;;9.50;99.90;;;;;;5078566;28;20039;-69
2022/12/25 12:05:58;;;;;;;3.28;2.30;;;9.50;99.90;;;;;;5071978;28;20040;-70
2022/12/25 12:08:24;;;;;;;3.75;2.15;;;9.50;99.90;;;;;;5057508;28;20047;-70
2022/12/25 12:11:00;;;;;;;6.70;2.60;;;9.50;99.90;;;;;;5077852;28;20062;-70
2022/12/25 12:13:39;;;;;;;4.28;2.15;;;9.50;99.90;;;;;;5068459;28;20053;-70
2022/12/25 12:16:07;;;;;;;2.63;1.83;;;9.50;99.90;;;;;;5070491;28;20241;-70
2022/12/25 12:18:33;;;;;;;3.92;2.47;;;9.50;99.90;;;;;;5078006;28;20039;-69
2022/12/25 12:21:03;;;;;;;4.22;2.42;;;9.50;99.90;;;;;;5071551;28;20028;-70
2022/12/25 12:23:33;;;;;;;5.30;2.85;;;9.50;99.90;;;;;;5074463;28;20033;-69
2022/12/25 12:25:59;;;;;;;8.77;3.33;;;9.50;99.90;;;;;;5074383;28;20044;-69
2022/12/25 12:28:38;;;;;;;6.75;2.83;;;9.50;99.90;;;;;;5090455;28;20035;-70
2022/12/25 12:31:06;;;;;;;5.75;2.90;;;9.50;99.90;;;;;;5076851;28;20051;-70
2022/12/25 12:33:42;;;;;;;9.43;2.65;;;9.50;99.90;;;;;;5069339;28;20498;-70
2022/12/25 12:36:12;;;;;;;3.75;2.20;;;9.50;99.90;;;;;;5073473;28;20051;-69
2022/12/25 12:38:40;;;;;;;6.80;2.72;;;9.50;99.90;;;;;;5050989;28;20119;-70
2022/12/25 12:41:07;;;;;;;5.97;2.83;;;9.50;99.90;;;;;;5067734;28;20131;-70
2022/12/25 12:43:52;;;;;;;7.90;2.85;;;9.50;99.90;;;;;;5072367;28;20515;-70
2022/12/25 12:46:26;;;;;;;4.88;2.28;;;9.50;99.90;;;;;;5085965;28;20040;-70
2022/12/25 12:49:04;;;;;;;7.25;3.00;;;9.50;99.90;;;;;;5052029;28;20385;-69
2022/12/25 12:51:34;;;;;;;6.03;3.17;;;9.50;99.90;;;;;;5067225;28;20036;-70
2022/12/25 12:54:22;;;;;;;6.05;2.80;;;9.50;99.90;;;;;;5065360;28;20031;-70
2022/12/25 12:57:05;;;;;;;4.07;2.10;;;9.50;99.90;;;;;;5084694;28;20071;-70
2022/12/25 12:59:43;;;;;;;5.30;2.30;;;9.50;99.90;;;;;;5068162;28;20046;-71
2022/12/25 13:02:30;;;;;;;10.13;2.75;;;9.50;99.90;;;;;;5066549;28;20035;-70
2022/12/25 13:05:18;;;;;;;5.00;2.50;;;9.50;99.90;;;;;;5085006;28;20043;-70
2022/12/25 13:07:43;;;;;;;5.80;2.40;;;9.50;99.90;;;;;;5083619;28;20044;-70
2022/12/25 13:10:21;;;;;;;3.13;1.70;;;9.50;99.90;;;;;;5065210;28;20040;-72
2022/12/25 13:12:55;;;;;;;4.40;2.55;;;9.50;99.90;;;;;;5067218;28;20058;-70
2022/12/25 13:15:23;;;;;;;4.85;1.83;;;9.50;99.90;;;;;;5067255;28;20047;-70
2022/12/25 13:17:49;;;;;;;4.43;2.40;;;9.50;99.90;;;;;;5068677;28;20097;-70
2022/12/25 13:20:22;;;;;;;4.97;1.60;;;9.50;99.90;;;;;;5068682;28;20044;-70
2022/12/25 13:22:48;;;;;;;4.70;2.38;;;9.50;99.90;;;;;;5080107;28;20040;-70
2022/12/25 13:25:20;;;;;;;4.40;2.17;;;9.50;99.90;;;;;;5069044;28;20051;-70
2022/12/25 13:27:54;;;;;;;4.97;2.03;;;9.50;99.90;;;;;;5082251;28;20423;-70
2022/12/25 13:30:20;;;;;;;5.22;2.42;;;9.50;99.90;;;;;;5067596;28;20036;-70
2022/12/25 13:32:46;;;;;;;5.10;2.72;;;9.50;99.90;;;;;;5066957;28;20066;-70
2022/12/25 13:35:14;;;;;;;6.03;2.45;;;9.50;99.90;;;;;;5066231;28;20477;-70
2022/12/25 13:37:40;;;;;;;4.22;1.98;;;9.50;99.90;;;;;;5048191;28;20032;-70
2022/12/25 13:40:12;;;;;;;4.13;2.47;;;9.50;99.90;;;;;;5066697;28;20039;-70
2022/12/25 13:42:38;;;;;;;5.43;2.10;;;9.50;99.90;;;;;;5087930;28;20032;-70
2022/12/25 13:45:21;;;;;;;6.13;2.38;;;9.40;99.90;;;;;;5071844;28;20774;-70
2022/12/25 13:47:48;;;;;;;5.25;2.40;;;9.50;99.90;;;;;;5067466;28;20032;-70
2022/12/25 13:50:21;;;;;;;4.65;2.33;;;9.40;99.90;;;;;;5049461;28;20041;-70
2022/12/25 13:52:47;;;;;;;5.90;1.85;;;9.50;99.90;;;;;;5085443;28;20482;-70
2022/12/25 13:55:14;;;;;;;4.47;2.47;;;9.40;99.90;;;;;;5067552;28;20119;-70
2022/12/25 13:57:43;;;;;;;3.95;1.83;;;9.40;99.90;;;;;;5052188;28;20039;-70
2022/12/25 14:00:19;;;;;;;5.50;2.40;;;9.40;99.90;;;;;;5062419;28;20405;-70
2022/12/25 14:02:46;;;;;;;6.85;2.70;;;9.40;99.90;;;;;;5085260;28;20393;-70
2022/12/25 14:05:27;;;;;;;5.50;3.05;;;9.40;99.90;;;;;;5080983;28;20126;-70
2022/12/25 14:07:54;;;;;;;6.22;2.72;;;9.40;99.90;;;;;;5066687;28;20646;-70
2022/12/25 14:10:23;;;;;;;5.45;2.83;;;9.40;99.90;;;;;;5066327;28;20040;-69
2022/12/25 14:12:50;;;;;;;5.47;2.58;;;9.40;99.90;;;;;;5067130;28;20078;-70
2022/12/25 14:15:19;;;;;;;6.07;3.10;;;9.40;99.90;;;;;;5051408;28;20036;-70
2022/12/25 14:17:46;;;;;;;5.47;2.97;;;9.40;99.90;;;;;;5065913;28;20067;-70
2022/12/25 14:20:27;;;;;;;4.03;2.45;;;9.40;99.90;;;;;;5068723;28;20084;-69
2022/12/25 14:22:56;;;;;;;8.10;3.55;;;9.40;99.90;;;;;;5078302;28;20497;-70
2022/12/25 14:25:32;;;;;;;7.75;3.63;;;9.40;99.90;;;;;;5066536;28;20048;-70
2022/12/25 14:28:03;;;;;;;5.95;3.30;;;9.40;99.90;;;;;;5080373;28;20036;-70
2022/12/25 14:30:29;;;;;;;6.07;3.50;;;9.30;99.90;;;;;;5064368;28;20062;-70
2022/12/25 14:32:56;;;;;;;7.38;3.70;;;9.30;99.90;;;;;;5064887;28;20404;-70
2022/12/25 14:35:22;;;;;;;4.28;2.58;;;9.30;99.90;;;;;;5067532;28;20079;-70
2022/12/25 14:37:55;;;;;;;5.03;3.10;;;9.30;99.90;;;;;;5067052;28;20043;-70
2022/12/25 14:40:31;;;;;;;7.55;3.53;;;9.40;99.90;;;;;;5067138;28;20433;-70
2022/12/25 14:43:04;;;;;;;5.05;2.60;;;9.30;99.90;;;;;;5061438;28;20040;-70
2022/12/25 14:45:32;;;;;;;10.07;3.40;;;9.30;99.90;;;;;;5082453;28;20042;-70
2022/12/25 14:48:01;;;;;;;7.22;4.00;;;9.30;99.90;;;;;;5067722;28;20105;-70
2022/12/25 14:50:29;;;;;;;7.07;3.30;;;9.30;99.90;;;;;;5082103;28;20039;-70
2022/12/25 14:52:56;;;;;;;5.65;3.08;;;9.30;99.90;;;;;;5081725;28;20039;-70